Bessemer, Michigan
Current Conditions -  °F | °C
As of 4:15 PM on Tuesday 21 Oct 2014 (Local Time) from KIWD Reporting Station
Clear Clear  
Wind Chill:   Ceiling: Unl
Heat Index:   Visibility: 10mi
Dew Point:   Wind: 5mph
Humidity: 66%   Direction: 100°E
Pressure: 30.21"   Gusts: NA
Location:  46.48°N, 90.05°W
Report Text: KIWD 212115Z AUTO 10004KT 10SM CLR 08/02 A3021 RMK AO1
Loading
Personal Weather Stations






























Interactive Weather Map
Tropical Storm Tracking
New forecast layout! Learn more

10-Day Weather Forecast

Advertisements
Track Severe Weather on mobile